createdAt,value
2023-03-11T00:00:18.780Z,2.00
2023-03-11T00:02:49.091Z,1.85
2023-03-11T00:05:18.852Z,2.70
2023-03-11T00:07:46.638Z,2.50
2023-03-11T00:10:16.675Z,2.45
2023-03-11T00:12:44.608Z,2.67
2023-03-11T00:15:12.852Z,1.90
2023-03-11T00:17:41.244Z,1.83
2023-03-11T00:20:18.340Z,2.10
2023-03-11T00:22:46.300Z,2.20
2023-03-11T00:25:14.602Z,1.77
2023-03-11T00:27:42.425Z,3.58
2023-03-11T00:30:27.238Z,1.70
2023-03-11T00:32:58.613Z,1.75
2023-03-11T00:35:28.852Z,2.88
2023-03-11T00:37:58.819Z,3.50
2023-03-11T00:40:28.506Z,2.40
2023-03-11T00:42:56.687Z,2.28
2023-03-11T00:45:26.559Z,4.57
2023-03-11T00:47:55.271Z,3.78
2023-03-11T00:50:25.993Z,2.20
2023-03-11T00:52:53.861Z,2.60
2023-03-11T00:55:24.145Z,3.10
2023-03-11T00:57:53.514Z,2.00
2023-03-11T01:00:25.547Z,1.90
2023-03-11T01:02:54.624Z,1.65
2023-03-11T01:05:24.807Z,4.18
2023-03-11T01:07:52.767Z,2.45
2023-03-11T01:10:21.479Z,2.65
2023-03-11T01:12:49.411Z,2.20
2023-03-11T01:15:21.453Z,3.90
2023-03-11T01:17:50.925Z,3.38
2023-03-11T01:20:19.320Z,2.33
2023-03-11T01:22:47.418Z,4.10
2023-03-11T01:25:16.666Z,4.60
2023-03-11T01:27:44.429Z,2.72
2023-03-11T01:30:16.081Z,2.25
2023-03-11T01:32:44.497Z,3.47
2023-03-11T01:35:15.795Z,4.82
2023-03-11T01:37:43.646Z,4.35
2023-03-11T01:40:17.187Z,3.38
2023-03-11T01:42:45.055Z,3.95
2023-03-11T01:45:40.613Z,3.67
2023-03-11T01:48:09.543Z,2.05
2023-03-11T01:50:42.424Z,2.60
2023-03-11T01:53:11.102Z,2.25
2023-03-11T01:55:39.575Z,5.40
2023-03-11T01:58:12.461Z,1.90
2023-03-11T02:00:40.482Z,6.15
2023-03-11T02:03:12.521Z,3.63
2023-03-11T02:05:42.483Z,3.15
2023-03-11T02:08:10.866Z,2.15
2023-03-11T02:10:39.933Z,3.40
2023-03-11T02:13:07.905Z,3.70
2023-03-11T02:15:37.740Z,4.68
2023-03-11T02:18:08.334Z,3.65
2023-03-11T02:20:45.371Z,4.80
2023-03-11T02:23:14.735Z,3.65
2023-03-11T02:25:48.066Z,2.95
2023-03-11T02:28:20.090Z,4.22
2023-03-11T02:30:48.981Z,3.85
2023-03-11T02:33:17.757Z,2.78
2023-03-11T02:35:45.521Z,2.28
2023-03-11T02:38:14.039Z,4.05
2023-03-11T02:40:52.791Z,4.30
2023-03-11T02:43:27.276Z,5.88
2023-03-11T02:45:56.497Z,4.88
2023-03-11T02:48:25.112Z,5.63
2023-03-11T02:50:53.373Z,2.78
2023-03-11T02:53:21.210Z,2.33
2023-03-11T02:55:49.058Z,5.05
2023-03-11T02:58:16.929Z,2.65
2023-03-11T03:00:46.060Z,1.90
2023-03-11T03:03:14.135Z,5.97
2023-03-11T03:05:41.974Z,3.75
2023-03-11T03:08:09.659Z,3.83
2023-03-11T03:10:37.433Z,2.90
2023-03-11T03:13:05.399Z,4.75
2023-03-11T03:15:33.120Z,4.80
2023-03-11T03:18:02.282Z,3.55
2023-03-11T03:20:30.513Z,3.70
2023-03-11T03:22:58.341Z,4.85
2023-03-11T03:25:26.107Z,3.58
2023-03-11T03:27:53.824Z,2.88
2023-03-11T03:30:22.022Z,4.70
2023-03-11T03:32:49.906Z,3.97
2023-03-11T03:35:19.234Z,6.68
2023-03-11T03:37:47.069Z,1.98
2023-03-11T03:40:15.341Z,1.75
2023-03-11T03:42:43.086Z,3.58
2023-03-11T03:45:12.129Z,4.03
2023-03-11T03:47:40.156Z,2.22
2023-03-11T03:50:12.390Z,3.42
2023-03-11T03:52:41.518Z,2.65
2023-03-11T03:55:10.339Z,2.63
2023-03-11T03:57:38.386Z,3.28
2023-03-11T04:00:09.749Z,3.00
2023-03-11T04:02:37.510Z,3.90
2023-03-11T04:05:06.267Z,3.80
2023-03-11T04:07:35.050Z,2.10
2023-03-11T04:10:05.271Z,5.28
2023-03-11T04:12:33.284Z,2.35
2023-03-11T04:15:01.132Z,4.40
2023-03-11T04:17:29.000Z,4.80
2023-03-11T04:19:56.825Z,5.25
2023-03-11T04:22:24.744Z,2.05
2023-03-11T04:24:52.486Z,4.10
2023-03-11T04:27:21.675Z,3.65
2023-03-11T04:29:49.554Z,5.63
2023-03-11T04:32:17.409Z,7.03
2023-03-11T04:34:45.310Z,2.45
2023-03-11T04:37:13.154Z,3.97
2023-03-11T04:39:40.967Z,4.07
2023-03-11T04:42:08.872Z,3.65
2023-03-11T04:44:38.167Z,4.07
2023-03-11T04:47:06.337Z,5.88
2023-03-11T04:49:34.549Z,5.53
2023-03-11T04:52:02.433Z,9.05
2023-03-11T04:54:30.271Z,8.05
2023-03-11T04:56:58.549Z,5.13
2023-03-11T04:59:26.479Z,5.72
2023-03-11T05:01:55.949Z,6.10
2023-03-11T05:04:23.832Z,5.65
2023-03-11T05:06:52.309Z,3.75
2023-03-11T05:09:20.278Z,3.53
2023-03-11T05:11:48.172Z,3.15
2023-03-11T05:14:15.905Z,7.07
2023-03-11T05:16:43.785Z,2.80
2023-03-11T05:19:26.887Z,5.30
2023-03-11T05:21:54.918Z,5.78
2023-03-11T05:24:22.924Z,7.20
2023-03-11T05:26:50.764Z,9.00
2023-03-11T05:29:20.191Z,3.55
2023-03-11T05:31:48.167Z,2.95
2023-03-11T05:34:17.865Z,5.70
2023-03-11T05:36:45.956Z,4.32
2023-03-11T05:39:13.763Z,7.60
2023-03-11T05:41:42.025Z,6.22
2023-03-11T05:44:09.848Z,3.90
2023-03-11T05:46:38.086Z,5.35
2023-03-11T05:49:05.894Z,4.25
2023-03-11T05:51:35.544Z,3.33
2023-03-11T05:54:03.329Z,4.97
2023-03-11T05:56:31.297Z,3.65
2023-03-11T05:58:59.423Z,4.63
2023-03-11T06:01:27.182Z,4.30
2023-03-11T06:03:55.095Z,2.55
2023-03-11T06:06:24.045Z,4.55
2023-03-11T06:08:53.149Z,5.40
2023-03-11T06:11:21.170Z,3.70
2023-03-11T06:13:48.970Z,5.38
2023-03-11T06:16:16.863Z,6.40
2023-03-11T06:18:44.685Z,9.18
2023-03-11T06:21:18.125Z,2.30
2023-03-11T06:23:46.319Z,6.03
2023-03-11T06:26:17.267Z,3.70
2023-03-11T06:28:45.651Z,9.00
2023-03-11T06:31:17.162Z,7.25
2023-03-11T06:33:45.281Z,5.18
2023-03-11T06:36:15.568Z,5.78
2023-03-11T06:38:44.150Z,5.07
2023-03-11T06:41:12.196Z,5.70
2023-03-11T06:43:41.579Z,7.38
2023-03-11T06:46:10.458Z,5.50
2023-03-11T06:48:38.528Z,6.50
2023-03-11T06:51:07.182Z,11.10
2023-03-11T06:53:35.562Z,12.48
2023-03-11T06:56:05.062Z,5.25
2023-03-11T06:58:34.355Z,7.32
2023-03-11T07:01:04.688Z,5.20
2023-03-11T07:03:33.446Z,5.25
2023-03-11T07:06:01.547Z,9.98
2023-03-11T07:08:31.084Z,5.63
2023-03-11T07:11:04.606Z,4.45
2023-03-11T07:13:32.905Z,4.97
2023-03-11T07:16:07.531Z,5.60
2023-03-11T07:18:37.323Z,3.92
2023-03-11T07:21:07.184Z,4.50
2023-03-11T07:23:36.157Z,6.97
2023-03-11T07:26:04.899Z,10.75
2023-03-11T07:28:32.925Z,5.47
2023-03-11T07:31:00.892Z,9.00
2023-03-11T07:33:32.626Z,10.48
2023-03-11T07:36:05.988Z,4.63
2023-03-11T07:38:34.473Z,5.05
2023-03-11T07:41:09.466Z,8.57
2023-03-11T07:43:37.656Z,3.95
2023-03-11T07:46:07.735Z,10.43
2023-03-11T07:48:38.776Z,7.85
2023-03-11T07:51:10.967Z,7.70
2023-03-11T07:53:40.636Z,9.30
2023-03-11T07:56:12.893Z,5.22
2023-03-11T07:58:42.452Z,4.53
2023-03-11T08:01:13.592Z,9.43
2023-03-11T08:03:43.539Z,17.90
2023-03-11T08:06:15.277Z,5.30
2023-03-11T08:08:44.789Z,6.28
2023-03-11T08:11:16.080Z,5.80
2023-03-11T08:13:45.755Z,5.05
2023-03-11T08:16:15.672Z,8.23
2023-03-11T08:18:46.786Z,5.40
2023-03-11T08:21:16.693Z,5.72
2023-03-11T08:23:44.560Z,4.57
2023-03-11T08:26:15.517Z,3.13
2023-03-11T08:28:44.397Z,3.63
2023-03-11T08:31:16.264Z,3.97
2023-03-11T08:33:46.443Z,15.53
2023-03-11T08:36:14.467Z,4.73
2023-03-11T08:38:42.365Z,7.50
2023-03-11T08:41:10.203Z,14.20
2023-03-11T08:43:38.144Z,14.10
2023-03-11T08:46:07.866Z,12.50
2023-03-11T08:48:38.072Z,17.53
2023-03-11T08:51:12.118Z,14.67
2023-03-11T08:53:40.396Z,10.37
2023-03-11T08:56:09.090Z,7.03
2023-03-11T08:58:37.309Z,6.37
2023-03-11T09:01:05.814Z,7.60
2023-03-11T09:03:35.407Z,6.57
2023-03-11T09:06:05.952Z,5.77
2023-03-11T09:08:35.945Z,4.87
2023-03-11T09:11:07.257Z,10.43
2023-03-11T09:13:35.606Z,8.80
2023-03-11T09:16:05.924Z,7.37
2023-03-11T09:18:33.926Z,5.53
2023-03-11T09:21:01.842Z,9.27
2023-03-11T09:23:29.754Z,9.60
2023-03-11T09:26:02.127Z,7.47
2023-03-11T09:28:30.717Z,8.70
2023-03-11T09:31:00.015Z,9.38
2023-03-11T09:33:27.973Z,11.53
2023-03-11T09:35:56.091Z,12.67
2023-03-11T09:38:23.974Z,16.73
2023-03-11T09:41:01.221Z,13.37
2023-03-11T09:43:42.426Z,12.87
2023-03-11T09:46:28.973Z,14.63
2023-03-11T09:49:06.207Z,16.13
2023-03-11T09:51:39.350Z,12.03
2023-03-11T09:54:12.407Z,4.90
2023-03-11T09:56:44.519Z,8.10
2023-03-11T09:59:20.763Z,20.23
2023-03-11T10:01:51.729Z,15.60
2023-03-11T10:04:28.036Z,16.23
2023-03-11T10:06:57.091Z,12.97
2023-03-11T10:09:39.414Z,17.53
2023-03-11T10:12:27.353Z,11.13
2023-03-11T10:15:16.648Z,11.00
2023-03-11T10:18:06.357Z,15.87
2023-03-11T10:20:42.261Z,13.13
2023-03-11T10:23:20.508Z,15.90
2023-03-11T10:25:58.134Z,14.03
2023-03-11T10:28:32.052Z,24.03
2023-03-11T10:31:07.136Z,8.23
2023-03-11T10:33:41.109Z,13.87
2023-03-11T10:36:15.405Z,15.60
2023-03-11T10:38:47.627Z,22.20
2023-03-11T10:41:22.677Z,12.00
2023-03-11T10:43:56.042Z,9.18
2023-03-11T10:46:27.784Z,10.18
2023-03-11T10:48:56.812Z,9.85
2023-03-11T10:51:27.031Z,11.33
2023-03-11T10:53:56.666Z,11.87
2023-03-11T10:56:31.612Z,7.90
2023-03-11T10:59:00.168Z,11.20
2023-03-11T11:01:30.721Z,14.63
2023-03-11T11:04:01.589Z,13.63
2023-03-11T11:06:37.695Z,15.03
2023-03-11T11:09:16.268Z,9.50
2023-03-11T11:12:01.104Z,14.20
2023-03-11T11:14:43.578Z,16.17
2023-03-11T11:17:20.782Z,10.87
2023-03-11T11:19:50.373Z,15.80
2023-03-11T11:22:20.122Z,14.17
2023-03-11T11:24:51.360Z,17.80
2023-03-11T11:27:21.338Z,17.87
2023-03-11T11:30:03.421Z,20.03
2023-03-11T11:32:32.602Z,23.13
2023-03-11T11:35:02.476Z,9.33
2023-03-11T11:37:32.841Z,15.17
2023-03-11T11:40:11.229Z,8.93
2023-03-11T11:42:40.809Z,11.30
2023-03-11T11:45:15.841Z,14.07
2023-03-11T11:47:58.744Z,6.23
2023-03-11T11:50:33.159Z,5.73
2023-03-11T11:53:09.131Z,6.57
2023-03-11T11:55:40.194Z,6.50
2023-03-11T11:58:11.065Z,4.50
2023-03-11T12:00:51.226Z,6.90
2023-03-11T12:03:43.608Z,13.75
2023-03-11T12:06:20.586Z,10.88
2023-03-11T12:09:05.234Z,7.55
2023-03-11T12:11:42.099Z,9.30
2023-03-11T12:14:18.778Z,16.88
2023-03-11T12:16:53.499Z,8.07
2023-03-11T12:19:34.899Z,7.22
2023-03-11T12:22:37.450Z,6.28
2023-03-11T12:25:29.951Z,6.63
2023-03-11T12:28:04.846Z,8.63
2023-03-11T12:30:36.809Z,8.38
2023-03-11T12:33:08.134Z,13.23
2023-03-11T12:35:39.595Z,12.70
2023-03-11T12:38:18.609Z,11.93
2023-03-11T12:41:09.218Z,11.27
2023-03-11T12:44:04.940Z,10.43
2023-03-11T12:47:18.479Z,8.48
2023-03-11T12:49:48.185Z,9.05
2023-03-11T12:52:26.531Z,9.57
2023-03-11T12:55:36.384Z,8.55
2023-03-11T12:58:36.367Z,11.13
2023-03-11T13:01:16.230Z,9.80
2023-03-11T13:03:52.982Z,8.60
2023-03-11T13:06:48.508Z,18.33
2023-03-11T13:09:18.722Z,6.47
2023-03-11T13:11:47.690Z,5.10
2023-03-11T13:14:28.617Z,5.57
2023-03-11T13:16:57.187Z,3.55
2023-03-11T13:19:49.274Z,6.50
2023-03-11T13:22:50.581Z,3.70
2023-03-11T13:25:39.391Z,7.80
2023-03-11T13:28:29.821Z,12.20
2023-03-11T13:31:06.337Z,8.45
2023-03-11T13:33:47.316Z,6.88
2023-03-11T13:36:29.594Z,5.10
2023-03-11T13:39:34.107Z,6.35
2023-03-11T13:42:04.682Z,6.35
2023-03-11T13:44:38.552Z,4.75
2023-03-11T13:47:11.251Z,6.63
2023-03-11T13:49:44.196Z,7.63
2023-03-11T13:52:17.054Z,6.43
2023-03-11T13:54:48.919Z,5.75
2023-03-11T13:57:26.081Z,7.55
2023-03-11T13:59:55.026Z,5.30
2023-03-11T14:02:26.225Z,9.00
2023-03-11T14:04:58.247Z,13.57
2023-03-11T14:07:29.187Z,11.00
2023-03-11T14:10:23.993Z,7.25
2023-03-11T14:12:54.010Z,7.05
2023-03-11T14:15:25.198Z,9.98
2023-03-11T14:17:54.276Z,8.95
2023-03-11T14:20:25.551Z,5.60
2023-03-11T14:22:55.250Z,9.30
2023-03-11T14:25:28.373Z,9.20
2023-03-11T14:28:00.670Z,10.38
2023-03-11T14:30:30.320Z,10.98
2023-03-11T14:33:01.770Z,12.43
2023-03-11T14:35:31.684Z,18.65
2023-03-11T14:38:00.010Z,14.18
2023-03-11T14:40:31.419Z,14.93
2023-03-11T14:43:05.093Z,22.42
2023-03-11T14:45:36.522Z,16.88
2023-03-11T14:48:20.348Z,9.50
2023-03-11T14:50:50.581Z,10.52
2023-03-11T14:53:22.479Z,15.55
2023-03-11T14:55:52.887Z,10.55
2023-03-11T14:58:30.642Z,16.55
2023-03-11T15:01:04.903Z,13.95
2023-03-11T15:03:34.953Z,19.08
2023-03-11T15:06:07.373Z,14.05
2023-03-11T15:08:39.323Z,18.55
2023-03-11T15:11:21.684Z,15.25
2023-03-11T15:13:52.504Z,7.55
2023-03-11T15:16:27.571Z,10.50
2023-03-11T15:18:55.820Z,10.40
2023-03-11T15:21:26.004Z,15.43
2023-03-11T15:24:05.366Z,14.05
2023-03-11T15:26:35.713Z,16.60
2023-03-11T15:29:15.625Z,9.10
2023-03-11T15:31:45.135Z,11.18
2023-03-11T15:34:25.503Z,12.48
2023-03-11T15:37:15.505Z,19.40
2023-03-11T15:39:46.853Z,12.57
2023-03-11T15:42:20.391Z,11.45
2023-03-11T15:45:14.964Z,12.50
2023-03-11T15:47:43.194Z,9.70
2023-03-11T15:50:26.684Z,8.30
2023-03-11T15:52:59.105Z,10.20
2023-03-11T15:55:28.908Z,7.90
2023-03-11T15:58:03.906Z,7.95
2023-03-11T16:00:36.608Z,9.73
2023-03-11T16:03:05.548Z,10.50
2023-03-11T16:05:33.844Z,8.38
2023-03-11T16:08:03.687Z,7.22
2023-03-11T16:10:31.835Z,5.05
2023-03-11T16:13:00.332Z,10.13
2023-03-11T16:15:31.569Z,11.88
2023-03-11T16:18:02.871Z,11.10
2023-03-11T16:20:34.224Z,6.32
2023-03-11T16:23:02.805Z,11.65
2023-03-11T16:25:34.305Z,7.82
2023-03-11T16:28:02.659Z,10.55
2023-03-11T16:30:34.399Z,10.40
2023-03-11T16:33:05.111Z,25.23
2023-03-11T16:35:34.251Z,23.85
2023-03-11T16:38:02.636Z,7.28
2023-03-11T16:40:32.724Z,10.25
2023-03-11T16:43:03.555Z,12.90
2023-03-11T16:45:31.920Z,14.00
2023-03-11T16:48:02.284Z,14.85
2023-03-11T16:50:31.662Z,12.30
2023-03-11T16:52:59.529Z,13.05
2023-03-11T16:55:28.727Z,10.80
2023-03-11T16:57:58.771Z,10.35
2023-03-11T17:00:27.027Z,21.45
2023-03-11T17:02:55.439Z,8.55
2023-03-11T17:05:23.747Z,12.35
2023-03-11T17:08:00.710Z,20.95
2023-03-11T17:10:29.573Z,11.88
2023-03-11T17:12:58.225Z,19.77
2023-03-11T17:15:26.236Z,18.45
2023-03-11T17:17:56.014Z,19.17
2023-03-11T17:20:23.859Z,17.63
2023-03-11T17:23:00.409Z,27.27
2023-03-11T17:25:32.395Z,40.53
2023-03-11T17:28:00.221Z,10.30
2023-03-11T17:30:36.766Z,17.40
2023-03-11T17:33:05.530Z,8.57
2023-03-11T17:35:33.790Z,13.35
2023-03-11T17:38:02.376Z,15.65
2023-03-11T17:40:32.875Z,11.32
2023-03-11T17:43:00.898Z,13.43
2023-03-11T17:45:28.826Z,20.30
2023-03-11T17:47:56.762Z,12.20
2023-03-11T17:50:26.551Z,10.60
2023-03-11T17:52:56.910Z,10.95
2023-03-11T17:55:28.589Z,11.95
2023-03-11T17:57:58.088Z,14.20
2023-03-11T18:00:27.578Z,13.20
2023-03-11T18:02:55.532Z,12.55
2023-03-11T18:05:23.541Z,11.23
2023-03-11T18:07:51.672Z,13.80
2023-03-11T18:10:19.696Z,11.95
2023-03-11T18:12:48.798Z,10.60
2023-03-11T18:15:20.178Z,16.85
2023-03-11T18:17:48.970Z,16.27
2023-03-11T18:20:17.087Z,13.60
2023-03-11T18:22:46.764Z,11.60
2023-03-11T18:25:15.016Z,10.88
2023-03-11T18:27:43.858Z,15.55
2023-03-11T18:30:15.087Z,18.38
2023-03-11T18:32:45.410Z,9.98
2023-03-11T18:35:18.277Z,11.13
2023-03-11T18:37:46.692Z,9.90
2023-03-11T18:40:15.337Z,10.70
2023-03-11T18:42:43.967Z,13.93
2023-03-11T18:45:13.095Z,13.90
2023-03-11T18:47:41.191Z,37.40
2023-03-11T18:50:26.832Z,21.48
2023-03-11T18:52:55.134Z,14.23
2023-03-11T18:55:23.002Z,17.63
2023-03-11T18:57:50.928Z,10.93
2023-03-11T19:00:22.508Z,10.45
2023-03-11T19:02:54.105Z,9.75
2023-03-11T19:05:23.427Z,11.05
2023-03-11T19:07:51.188Z,7.45
2023-03-11T19:10:20.109Z,9.73
2023-03-11T19:12:48.194Z,16.77
2023-03-11T19:15:16.189Z,6.90
2023-03-11T19:17:45.519Z,10.93
2023-03-11T19:20:16.058Z,11.57
2023-03-11T19:22:52.849Z,10.93
2023-03-11T19:25:27.801Z,13.45
2023-03-11T19:28:04.586Z,9.52
2023-03-11T19:30:34.141Z,17.00
2023-03-11T19:33:02.727Z,8.52
2023-03-11T19:35:30.817Z,9.05
2023-03-11T19:38:00.431Z,11.95
2023-03-11T19:40:30.275Z,12.98
2023-03-11T19:42:59.491Z,11.43
2023-03-11T19:45:27.968Z,13.65
2023-03-11T19:47:56.698Z,11.75
2023-03-11T19:50:25.157Z,10.65
2023-03-11T19:52:54.094Z,10.30
2023-03-11T19:55:24.851Z,8.95
2023-03-11T19:57:53.302Z,7.70
2023-03-11T20:00:21.921Z,9.30
2023-03-11T20:02:49.720Z,11.15
2023-03-11T20:05:17.694Z,15.23
2023-03-11T20:07:45.658Z,10.52
2023-03-11T20:10:16.439Z,17.85
2023-03-11T20:13:01.496Z,16.35
2023-03-11T20:15:30.339Z,14.55
2023-03-11T20:18:00.955Z,21.20
2023-03-11T20:20:29.267Z,9.75
2023-03-11T20:22:57.755Z,17.13
2023-03-11T20:25:26.828Z,12.48
2023-03-11T20:27:56.654Z,11.45
2023-03-11T20:30:24.790Z,18.58
2023-03-11T20:32:54.390Z,10.82
2023-03-11T20:35:23.104Z,13.68
2023-03-11T20:37:51.130Z,20.65
2023-03-11T20:40:20.210Z,28.52
2023-03-11T20:42:48.090Z,18.73
2023-03-11T20:45:21.506Z,17.80
2023-03-11T20:47:49.766Z,18.80
2023-03-11T20:50:18.023Z,14.43
2023-03-11T20:52:45.894Z,14.15
2023-03-11T20:55:14.523Z,12.68
2023-03-11T20:57:42.481Z,14.88
2023-03-11T21:00:12.630Z,14.45
2023-03-11T21:02:43.617Z,12.77
2023-03-11T21:05:13.525Z,14.30
2023-03-11T21:07:42.242Z,12.68
2023-03-11T21:10:13.261Z,18.05
2023-03-11T21:12:41.191Z,18.83
2023-03-11T21:15:10.474Z,14.52
2023-03-11T21:17:38.978Z,17.98
2023-03-11T21:20:09.159Z,21.98
2023-03-11T21:22:37.811Z,19.67
2023-03-11T21:25:08.726Z,16.83
2023-03-11T21:27:36.771Z,14.50
2023-03-11T21:30:05.463Z,18.40
2023-03-11T21:32:33.353Z,18.13
2023-03-11T21:35:03.155Z,12.30
2023-03-11T21:37:32.754Z,14.55
2023-03-11T21:40:00.712Z,12.45
2023-03-11T21:42:30.492Z,15.82
2023-03-11T21:44:59.053Z,14.65
2023-03-11T21:47:26.954Z,16.40
2023-03-11T21:49:54.722Z,15.13
2023-03-11T21:52:22.645Z,20.25
2023-03-11T21:54:51.849Z,14.63
2023-03-11T21:57:19.731Z,16.23
2023-03-11T21:59:47.459Z,12.95
2023-03-11T22:02:16.854Z,9.75
2023-03-11T22:04:44.939Z,14.07
2023-03-11T22:07:12.867Z,12.68
2023-03-11T22:09:40.756Z,15.02
2023-03-11T22:12:10.099Z,13.30
2023-03-11T22:14:38.023Z,11.48
2023-03-11T22:17:05.901Z,15.75
2023-03-11T22:19:33.784Z,12.77
2023-03-11T22:22:01.838Z,14.77
2023-03-11T22:24:29.594Z,12.70
2023-03-11T22:26:57.337Z,14.15
2023-03-11T22:29:26.557Z,14.75
2023-03-11T22:31:54.492Z,15.80
2023-03-11T22:34:22.426Z,12.18
2023-03-11T22:36:50.172Z,15.73
2023-03-11T22:39:18.052Z,11.15
2023-03-11T22:41:45.868Z,13.75
2023-03-11T22:44:13.896Z,19.33
2023-03-11T22:46:43.371Z,18.75
2023-03-11T22:49:11.762Z,15.52
2023-03-11T22:51:40.506Z,13.50
2023-03-11T22:54:08.772Z,14.88
2023-03-11T22:56:36.672Z,15.23
2023-03-11T22:59:04.481Z,15.07
2023-03-11T23:01:32.922Z,18.13
2023-03-11T23:04:02.089Z,11.07
2023-03-11T23:06:30.084Z,11.38
2023-03-11T23:08:57.869Z,10.57
2023-03-11T23:11:25.694Z,12.52
2023-03-11T23:13:53.441Z,11.40
2023-03-11T23:16:22.864Z,13.45
2023-03-11T23:18:53.426Z,14.68
2023-03-11T23:21:25.056Z,12.02
2023-03-11T23:23:54.795Z,20.00
2023-03-11T23:26:23.336Z,10.27
2023-03-11T23:28:52.253Z,20.55
2023-03-11T23:31:20.546Z,14.52
2023-03-11T23:33:48.428Z,21.02
2023-03-11T23:36:17.968Z,13.40
2023-03-11T23:38:47.410Z,17.60
2023-03-11T23:41:17.303Z,13.05
2023-03-11T23:43:45.579Z,14.00
2023-03-11T23:46:13.507Z,10.02
2023-03-11T23:48:41.945Z,12.02
2023-03-11T23:51:10.249Z,11.98
2023-03-11T23:53:39.212Z,11.35
2023-03-11T23:56:12.346Z,12.15
2023-03-11T23:58:40.242Z,14.30
